Time;durP1;ratioP1;P1;durP2;ratioP2;P2;SDS_P1;SDS_P2;PMS_P1;PMS_P2;Temp;Humidity;BMP_temperature;BMP_pressure;BME280_temperature;BME280_humidity;BME280_pressure;Samples;Min_cycle;Max_cycle;Signal;HPM_P1;HPM_P2
2021/12/20 00:01:34;;;;;;;7.60;4.55;;;;;;;2.47;79.09;93807.31;5051613;28;20035;-67
2021/12/20 00:04:00;;;;;;;8.20;4.43;;;;;;;2.44;79.43;93816.22;5052418;28;20394;-68
2021/12/20 00:06:25;;;;;;;6.13;3.58;;;;;;;2.31;80.58;93821.78;5052448;28;20465;-67
2021/12/20 00:08:51;;;;;;;9.88;4.53;;;;;;;2.38;81.33;93829.50;5052407;28;20516;-67
2021/12/20 00:11:16;;;;;;;7.03;3.95;;;;;;;2.35;81.51;93819.69;5052312;28;20060;-68
2021/12/20 00:13:42;;;;;;;7.57;4.43;;;;;;;2.33;81.49;93822.06;5052852;28;20017;-68
2021/12/20 00:16:07;;;;;;;5.85;3.78;;;;;;;2.28;82.68;93822.69;5052608;28;20064;-68
2021/12/20 00:18:33;;;;;;;8.15;4.55;;;;;;;2.32;82.30;93833.97;5051304;28;20382;-68
2021/12/20 00:20:58;;;;;;;7.18;4.75;;;;;;;2.32;82.35;93832.03;5052233;28;20025;-68
2021/12/20 00:23:24;;;;;;;7.10;4.88;;;;;;;2.25;82.49;93853.78;5054530;28;20484;-68
2021/12/20 00:25:50;;;;;;;11.65;5.35;;;;;;;2.25;82.57;93835.03;5055892;28;20029;-67
2021/12/20 00:28:20;;;;;;;7.95;4.90;;;;;;;2.18;83.12;93838.75;5055104;28;20429;-68
2021/12/20 00:30:46;;;;;;;7.03;4.63;;;;;;;2.14;82.77;93835.47;5056142;28;20043;-66
2021/12/20 00:33:12;;;;;;;7.30;4.65;;;;;;;2.26;82.79;93846.47;5055771;28;20331;-68
2021/12/20 00:35:38;;;;;;;4.82;3.38;;;;;;;2.12;83.40;93837.84;5055803;28;20024;-68
2021/12/20 00:40:48;;;;;;;6.35;4.13;;;;;;;2.20;83.08;93852.41;5056023;28;20104;-68
2021/12/20 00:43:14;;;;;;;6.97;4.20;;;;;;;2.31;82.59;93856.59;5055682;28;20444;-68
2021/12/20 00:45:40;;;;;;;7.70;4.22;;;;;;;2.26;82.27;93855.22;5054566;28;20036;-67
2021/12/20 00:48:06;;;;;;;5.88;3.60;;;;;;;2.24;82.77;93860.31;5055880;28;20020;-67
2021/12/20 00:50:32;;;;;;;5.60;3.63;;;;;;;2.17;82.59;93837.25;5055813;28;20025;-67
2021/12/20 00:52:58;;;;;;;5.63;4.00;;;;;;;2.17;83.29;93831.91;5055378;28;20131;-68
2021/12/20 00:55:26;;;;;;;7.07;4.13;;;;;;;2.31;82.63;93843.19;5054528;28;20025;-67
2021/12/20 00:57:54;;;;;;;6.60;4.18;;;;;;;2.39;82.01;93830.97;5055462;28;20036;-68
2021/12/20 01:00:41;;;;;;;7.55;4.15;;;;;;;2.54;81.43;93839.88;5055412;28;20025;-68
2021/12/20 01:03:08;;;;;;;5.40;3.30;;;;;;;2.34;82.05;93815.50;5055778;28;20401;-68
2021/12/20 01:05:34;;;;;;;4.53;3.25;;;;;;;2.23;82.36;93833.97;5055238;28;20362;-67
2021/12/20 01:08:02;;;;;;;6.60;3.22;;;;;;;2.32;81.06;93804.53;5055115;28;20021;-67
2021/12/20 01:10:30;;;;;;;5.07;3.42;;;;;;;2.31;81.01;93821.78;5054844;28;20037;-67
2021/12/20 01:12:59;;;;;;;8.00;3.83;;;;;;;2.35;81.24;93831.13;5055016;28;20032;-68
2021/12/20 01:15:44;;;;;;;4.10;3.60;;;;;;;2.40;80.83;93826.34;5055338;28;20032;-68
2021/12/20 01:18:10;;;;;;;6.75;3.85;;;;;;;2.35;80.96;93825.78;5055047;28;20029;-68
2021/12/20 01:20:36;;;;;;;6.90;3.40;;;;;;;2.27;80.23;93813.16;5055538;28;20024;-68
2021/12/20 01:23:03;;;;;;;5.30;3.92;;;;;;;2.26;81.06;93812.38;5055181;28;20438;-68
2021/12/20 01:25:28;;;;;;;5.80;3.67;;;;;;;2.30;80.13;93822.97;5053847;28;20029;-68
2021/12/20 01:27:54;;;;;;;4.93;3.60;;;;;;;2.24;80.76;93835.47;5053927;28;20036;-68
2021/12/20 01:30:22;;;;;;;6.10;3.88;;;;;;;2.28;80.55;93836.06;5054907;28;20025;-68
2021/12/20 01:32:49;;;;;;;8.70;4.20;;;;;;;2.23;79.79;93823.28;5054637;28;20032;-68
2021/12/20 01:35:15;;;;;;;6.90;3.75;;;;;;;2.19;79.54;93834.13;5054416;28;20037;-68
2021/12/20 01:37:41;;;;;;;4.75;3.40;;;;;;;2.17;79.30;93829.22;5054735;28;20029;-66
2021/12/20 01:40:10;;;;;;;6.57;4.03;;;;;;;2.19;79.15;93820.75;5054655;28;20403;-67
2021/12/20 01:42:36;;;;;;;5.88;3.65;;;;;;;2.22;79.71;93795.00;5054568;28;20043;-68
2021/12/20 01:45:10;;;;;;;7.85;3.53;;;;;;;2.19;79.33;93831.44;5054583;28;20446;-66
2021/12/20 01:47:38;;;;;;;5.95;3.97;;;;;;;2.24;79.27;93814.78;5054852;28;20035;-69
2021/12/20 01:50:12;;;;;;;7.20;4.45;;;;;;;2.28;79.66;93838.75;5054732;28;20505;-67
2021/12/20 01:52:43;;;;;;;6.13;3.88;;;;;;;2.36;79.10;93847.97;5054416;28;20032;-67
2021/12/20 01:55:20;;;;;;;6.03;3.95;;;;;;;2.27;79.03;93845.28;5055099;28;20438;-68
2021/12/20 01:57:46;;;;;;;7.82;3.45;;;;;;;2.14;79.92;93837.41;5054601;28;20458;-68
2021/12/20 02:00:16;;;;;;;3.78;3.28;;;;;;;2.16;79.69;93845.75;5054334;28;20039;-67
2021/12/20 02:02:43;;;;;;;7.57;4.40;;;;;;;2.14;80.20;93826.69;5054188;28;20094;-68
2021/12/20 02:05:20;;;;;;;4.72;3.63;;;;;;;2.14;79.92;93848.88;5054385;28;20115;-68
2021/12/20 02:07:52;;;;;;;8.38;4.25;;;;;;;2.24;80.76;93846.19;5054642;28;20033;-68
2021/12/20 02:10:18;;;;;;;6.45;4.25;;;;;;;2.20;80.06;93847.06;5054232;28;20025;-68
2021/12/20 02:12:44;;;;;;;5.97;4.30;;;;;;;2.20;80.50;93847.06;5054333;28;20120;-66
2021/12/20 02:15:10;;;;;;;8.82;4.60;;;;;;;2.22;80.14;93838.56;5054186;28;20108;-67
2021/12/20 02:17:36;;;;;;;6.10;4.68;;;;;;;2.21;80.51;93837.13;5054254;28;20040;-68
2021/12/20 02:20:03;;;;;;;7.13;3.65;;;;;;;2.14;81.55;93859.56;5054007;28;20441;-67
2021/12/20 02:22:29;;;;;;;4.00;3.60;;;;;;;2.10;82.11;93858.97;5053956;28;20031;-67
2021/12/20 02:24:54;;;;;;;6.45;4.55;;;;;;;2.08;82.52;93847.97;5054176;28;20029;-67
2021/12/20 02:27:22;;;;;;;6.38;4.25;;;;;;;2.14;81.83;93832.81;5053890;28;20028;-67
2021/12/20 02:30:03;;;;;;;7.57;4.85;;;;;;;2.16;81.73;93849.16;5053747;28;20043;-67
2021/12/20 02:38:18;;;;;;;4.65;3.45;;;;;;;2.06;82.27;93836.97;5053922;28;20115;-68
2021/12/20 02:40:44;;;;;;;7.20;4.82;;;;;;;2.15;82.36;93834.28;5053615;28;20031;-68
2021/12/20 02:43:13;;;;;;;6.80;4.28;;;;;;;2.11;82.81;93839.03;5053476;28;20410;-68
2021/12/20 02:45:39;;;;;;;9.02;4.78;;;;;;;2.12;82.43;93851.22;5053414;28;20031;-68
2021/12/20 02:48:05;;;;;;;6.70;4.53;;;;;;;2.13;83.56;93847.38;5053423;28;20024;-68
2021/12/20 02:50:30;;;;;;;8.40;4.55;;;;;;;2.07;82.83;93861.78;5053881;28;20029;-69
2021/12/20 02:52:56;;;;;;;6.78;4.40;;;;;;;1.97;83.39;93877.13;5053536;28;20489;-68
2021/12/20 02:55:21;;;;;;;7.90;4.63;;;;;;;2.05;83.60;93864.94;5053270;28;20382;-67
2021/12/20 02:57:47;;;;;;;6.40;5.10;;;;;;;2.06;83.83;93863.75;5053196;28;20021;-67
2021/12/20 03:00:13;;;;;;;8.05;4.85;;;;;;;2.03;83.79;93837.84;5053201;28;20025;-67
2021/12/20 03:02:39;;;;;;;5.68;4.22;;;;;;;1.98;85.12;93830.44;5053154;28;20028;-67
2021/12/20 03:05:06;;;;;;;7.25;5.15;;;;;;;2.06;84.24;93836.97;5053128;28;20033;-68
2021/12/20 03:07:40;;;;;;;5.53;4.15;;;;;;;2.00;85.06;93838.75;5053339;28;20036;-67
2021/12/20 03:10:07;;;;;;;7.60;4.88;;;;;;;2.03;84.98;93821.78;5053375;28;20067;-68
2021/12/20 03:12:32;;;;;;;6.90;4.60;;;;;;;1.99;84.23;93831.91;5052919;28;20037;-67
2021/12/20 03:15:04;;;;;;;6.93;4.85;;;;;;;2.07;84.18;93835.75;5052886;28;20035;-67
2021/12/20 03:17:31;;;;;;;6.78;4.97;;;;;;;2.09;84.02;93838.75;5052851;28;20405;-68
2021/12/20 03:19:56;;;;;;;7.35;4.88;;;;;;;2.09;84.57;93829.97;5052959;28;20035;-67
2021/12/20 03:22:22;;;;;;;6.05;4.53;;;;;;;2.01;84.44;93830.25;5053139;28;20441;-69
2021/12/20 03:24:48;;;;;;;14.55;4.60;;;;;;;2.10;83.94;93831.44;5052181;28;20036;-67
2021/12/20 03:27:14;;;;;;;6.63;4.22;;;;;;;2.02;84.43;93821.06;5052789;28;20437;-67
2021/12/20 03:29:40;;;;;;;6.53;4.57;;;;;;;2.09;83.92;93830.72;5052781;28;20049;-67
2021/12/20 03:32:06;;;;;;;7.32;4.57;;;;;;;2.12;84.10;93847.81;5052729;28;20035;-67
2021/12/20 03:34:31;;;;;;;6.63;4.00;;;;;;;2.02;83.66;93831.75;5052743;28;20359;-68
2021/12/20 03:36:57;;;;;;;6.10;4.47;;;;;;;2.17;84.65;93836.53;5053223;28;20047;-67
2021/12/20 03:39:23;;;;;;;6.72;4.65;;;;;;;2.10;84.31;93850.94;5052735;28;20067;-68
2021/12/20 03:41:48;;;;;;;6.85;4.35;;;;;;;2.13;83.88;93828.63;5052694;28;20366;-67
2021/12/20 03:44:14;;;;;;;8.07;5.28;;;;;;;2.20;84.32;93847.06;5052888;28;20094;-68
2021/12/20 03:46:39;;;;;;;6.95;4.57;;;;;;;2.15;83.57;93836.94;5052622;28;20060;-68
2021/12/20 03:49:06;;;;;;;5.93;4.03;;;;;;;2.14;82.49;93835.47;5053062;28;20101;-68
2021/12/20 03:51:33;;;;;;;6.55;4.57;;;;;;;2.13;83.10;93847.38;5052547;28;20526;-67
2021/12/20 03:53:58;;;;;;;6.82;4.65;;;;;;;2.29;81.78;93854.34;5052483;28;20042;-67
2021/12/20 03:56:24;;;;;;;9.60;4.82;;;;;;;2.07;82.88;93848.41;5052415;28;20098;-67
2021/12/20 03:58:50;;;;;;;7.60;4.40;;;;;;;2.09;83.13;93846.78;5055842;28;20024;-67
2021/12/20 04:01:16;;;;;;;6.70;4.85;;;;;;;2.22;82.96;93856.59;5056525;28;20029;-68
2021/12/20 04:03:43;;;;;;;5.90;4.40;;;;;;;2.19;83.06;93856.28;5056497;28;20017;-68
2021/12/20 04:06:11;;;;;;;7.63;4.53;;;;;;;1.95;85.86;93863.41;5056465;28;20119;-68
2021/12/20 04:08:37;;;;;;;8.52;4.97;;;;;;;1.82;86.44;93861.63;5056789;28;20067;-67
2021/12/20 04:11:04;;;;;;;9.25;5.43;;;;;;;1.91;86.91;93866.25;5055175;28;20069;-67
2021/12/20 04:13:31;;;;;;;8.77;5.28;;;;;;;1.96;87.21;93864.91;5056479;28;20036;-67
2021/12/20 04:15:56;;;;;;;9.00;5.50;;;;;;;2.00;87.52;93871.63;5056311;28;20028;-67
2021/12/20 04:18:23;;;;;;;9.50;5.63;;;;;;;2.05;87.84;93864.19;5056309;28;20021;-67
2021/12/20 04:20:49;;;;;;;9.43;6.13;;;;;;;1.95;87.73;93879.47;5056202;28;20140;-68
2021/12/20 04:23:15;;;;;;;8.20;5.32;;;;;;;2.02;86.42;93881.88;5056183;28;20056;-66
2021/12/20 04:25:41;;;;;;;8.00;5.40;;;;;;;2.01;86.66;93886.47;5056343;28;20052;-67
2021/12/20 04:28:07;;;;;;;9.30;5.55;;;;;;;2.23;86.27;93868.78;5056038;28;20033;-68
2021/12/20 04:30:33;;;;;;;8.55;5.50;;;;;;;2.31;85.86;93883.38;5055994;28;20036;-69
2021/12/20 04:32:58;;;;;;;9.38;5.28;;;;;;;2.19;84.99;93872.34;5054900;28;20100;-67
2021/12/20 04:35:24;;;;;;;6.88;4.75;;;;;;;2.08;85.68;93890.81;5056064;28;20017;-67
2021/12/20 04:37:51;;;;;;;7.05;4.22;;;;;;;1.95;85.26;93879.47;5056045;28;20123;-66
2021/12/20 04:40:20;;;;;;;7.03;4.68;;;;;;;2.11;85.64;93887.22;5056031;28;20032;-67
2021/12/20 04:42:48;;;;;;;7.82;5.10;;;;;;;2.15;85.33;93882.47;5055921;28;20383;-67
2021/12/20 04:45:13;;;;;;;8.05;5.03;;;;;;;2.02;84.71;93882.63;5055714;28;20017;-66
2021/12/20 04:47:39;;;;;;;6.30;4.72;;;;;;;1.98;84.92;93892.00;5055887;28;20075;-67
2021/12/20 04:50:06;;;;;;;6.45;4.68;;;;;;;2.05;84.84;93905.06;5055577;28;20462;-66
2021/12/20 04:52:32;;;;;;;6.97;4.57;;;;;;;1.89;86.97;93910.72;5055363;28;20119;-67
2021/12/20 04:54:57;;;;;;;5.90;4.07;;;;;;;1.86;87.33;93894.34;5054453;28;20112;-67
2021/12/20 04:57:24;;;;;;;6.28;4.63;;;;;;;1.82;87.56;93901.03;5055439;28;20109;-66
2021/12/20 04:59:49;;;;;;;5.88;4.07;;;;;;;1.87;88.37;93887.06;5055298;28;20417;-67
2021/12/20 05:02:15;;;;;;;6.90;4.45;;;;;;;1.83;87.91;93905.94;5055233;28;20021;-66
2021/12/20 05:04:42;;;;;;;6.93;4.80;;;;;;;1.82;88.89;93903.72;5054159;28;20017;-67
2021/12/20 05:07:07;;;;;;;6.55;5.05;;;;;;;1.80;88.63;93903.41;5055153;28;20103;-66
2021/12/20 05:09:37;;;;;;;6.43;4.95;;;;;;;1.97;88.76;93909.97;5053932;28;20021;-67
2021/12/20 05:12:11;;;;;;;6.95;5.18;;;;;;;1.99;87.13;93917.56;5055329;28;20048;-67
2021/12/20 05:14:40;;;;;;;6.18;4.18;;;;;;;1.90;87.86;93922.91;5055565;28;20047;-67
2021/12/20 05:17:06;;;;;;;9.95;5.72;;;;;;;1.90;88.61;93920.97;5054984;28;20025;-67
2021/12/20 05:19:32;;;;;;;6.68;4.40;;;;;;;1.88;88.58;93926.00;5054939;28;20039;-67
2021/12/20 05:21:58;;;;;;;8.65;4.95;;;;;;;1.89;88.06;93935.53;5054926;28;20404;-67
2021/12/20 05:24:23;;;;;;;9.27;4.43;;;;;;;1.81;89.23;93940.44;5053663;28;20467;-66
2021/12/20 05:29:32;;;;;;;6.25;4.35;;;;;;;1.86;90.07;93939.84;5055155;28;20453;-67
2021/12/20 05:31:58;;;;;;;5.50;4.60;;;;;;;1.84;90.91;93944.16;5054762;28;20025;-67
2021/12/20 05:34:24;;;;;;;5.22;4.07;;;;;;;1.83;89.97;93943.41;5054790;28;20124;-67
2021/12/20 05:36:50;;;;;;;7.43;5.13;;;;;;;1.85;91.29;93951.75;5054688;28;20533;-68
2021/12/20 05:39:15;;;;;;;7.40;5.30;;;;;;;1.84;91.12;93955.63;5054913;28;20062;-68
2021/12/20 05:41:41;;;;;;;6.18;4.72;;;;;;;1.91;90.68;93957.25;5054498;28;20029;-66
2021/12/20 05:44:07;;;;;;;7.97;4.93;;;;;;;1.75;91.32;93947.56;5054667;28;20086;-66
2021/12/20 05:46:33;;;;;;;8.25;4.75;;;;;;;1.77;90.18;93952.47;5054383;28;20036;-67
2021/12/20 05:48:59;;;;;;;5.78;4.38;;;;;;;1.86;90.85;93963.94;5054564;28;20084;-68
2021/12/20 05:51:24;;;;;;;7.28;4.40;;;;;;;1.85;90.96;93961.69;5054583;28;20430;-67
2021/12/20 05:53:50;;;;;;;7.00;4.50;;;;;;;1.75;90.49;93960.19;5054335;28;20056;-66
2021/12/20 05:56:15;;;;;;;6.07;4.30;;;;;;;1.64;91.44;93955.25;5054220;28;20450;-67
2021/12/20 05:58:41;;;;;;;7.00;4.90;;;;;;;1.68;91.65;93963.91;5054528;28;20056;-67
2021/12/20 06:01:07;;;;;;;8.38;5.60;;;;;;;1.71;91.26;93965.69;5053241;28;20029;-67
2021/12/20 06:03:32;;;;;;;7.43;4.80;;;;;;;1.79;90.50;93966.88;5054212;28;20036;-67
2021/12/20 06:05:59;;;;;;;6.68;4.90;;;;;;;1.93;89.96;93962.91;5052900;28;20174;-67
2021/12/20 06:08:24;;;;;;;7.13;4.60;;;;;;;1.88;89.40;93960.06;5054051;28;20408;-67
2021/12/20 06:10:50;;;;;;;6.63;4.63;;;;;;;1.88;90.00;93966.16;5053779;28;20064;-67
2021/12/20 06:13:15;;;;;;;6.88;4.50;;;;;;;1.86;89.38;93953.22;5054393;28;20029;-67
2021/12/20 06:15:41;;;;;;;6.57;4.47;;;;;;;1.81;89.05;93948.47;5053945;28;20120;-67
2021/12/20 06:18:06;;;;;;;5.78;3.70;;;;;;;1.84;88.78;93952.94;5053770;28;20037;-68
2021/12/20 06:20:32;;;;;;;5.28;3.95;;;;;;;1.83;89.20;93946.09;5053555;28;20036;-68
2021/12/20 06:22:57;;;;;;;7.50;4.55;;;;;;;1.78;88.73;93956.63;5054204;28;20051;-67
2021/12/20 06:25:25;;;;;;;5.72;4.38;;;;;;;1.90;89.30;93952.34;5053814;28;20377;-67
2021/12/20 06:27:50;;;;;;;5.82;4.00;;;;;;;1.84;89.54;93950.25;5053728;28;20106;-67
2021/12/20 06:30:16;;;;;;;7.85;4.63;;;;;;;1.91;89.05;93981.34;5053856;28;20430;-67
2021/12/20 06:32:44;;;;;;;11.15;4.68;;;;;;;2.02;87.69;93972.91;5052651;28;20033;-68
2021/12/20 06:35:10;;;;;;;6.35;4.40;;;;;;;2.23;86.99;93973.22;5053636;28;20033;-68
2021/12/20 06:37:36;;;;;;;4.28;3.35;;;;;;;1.94;87.41;93969.75;5053455;28;20458;-67
2021/12/20 06:40:04;;;;;;;6.07;4.07;;;;;;;1.93;87.86;93962.16;5053599;28;20029;-67
2021/12/20 06:42:29;;;;;;;5.90;4.10;;;;;;;2.02;86.60;93973.63;5053278;28;20028;-67
2021/12/20 06:44:55;;;;;;;6.40;4.28;;;;;;;2.02;85.04;93972.91;5053311;28;20039;-67
2021/12/20 06:47:24;;;;;;;5.15;4.00;;;;;;;2.11;84.61;93972.91;5053150;28;20089;-66
2021/12/20 06:49:49;;;;;;;4.57;3.42;;;;;;;2.15;83.88;93973.50;5053131;28;20451;-67
2021/12/20 06:52:15;;;;;;;5.43;3.55;;;;;;;2.08;83.74;93970.38;5053302;28;20060;-67
2021/12/20 06:54:41;;;;;;;5.85;4.00;;;;;;;2.33;82.57;93988.09;5053540;28;20024;-67
2021/12/20 06:57:06;;;;;;;5.13;3.50;;;;;;;2.14;83.76;93961.31;5053599;28;20403;-67
2021/12/20 06:59:32;;;;;;;5.05;3.65;;;;;;;2.10;83.78;93974.09;5053410;28;20170;-67
2021/12/20 07:01:58;;;;;;;9.80;4.13;;;;;;;2.15;85.33;93973.50;5053231;28;20463;-67
2021/12/20 07:04:23;;;;;;;4.72;3.40;;;;;;;2.00;84.41;93972.59;5052955;28;20021;-68
2021/12/20 07:06:49;;;;;;;6.07;3.30;;;;;;;1.97;85.83;93984.19;5053337;28;20103;-68
2021/12/20 07:09:14;;;;;;;5.00;3.60;;;;;;;2.05;84.81;93972.00;5052832;28;20040;-68
2021/12/20 07:11:41;;;;;;;5.35;3.50;;;;;;;1.97;84.22;93973.47;5052631;28;20049;-68
2021/12/20 07:14:07;;;;;;;4.40;3.42;;;;;;;2.08;84.22;93979.16;5052996;28;20068;-67
2021/12/20 07:16:34;;;;;;;4.78;3.30;;;;;;;1.96;85.04;93980.00;5053376;28;20417;-67
2021/12/20 07:19:00;;;;;;;5.57;3.53;;;;;;;2.02;86.00;93967.53;5052832;28;20098;-67
2021/12/20 07:21:26;;;;;;;6.28;4.10;;;;;;;2.10;86.05;93968.00;5052821;28;20040;-67
2021/12/20 07:23:51;;;;;;;6.22;4.22;;;;;;;2.18;85.05;93967.28;5053189;28;20029;-67
2021/12/20 07:26:17;;;;;;;5.35;3.15;;;;;;;2.01;85.83;93984.78;5052688;28;20020;-67
2021/12/20 07:28:43;;;;;;;3.90;3.08;;;;;;;2.05;84.67;93980.03;5052729;28;20029;-68
2021/12/20 07:31:13;;;;;;;5.50;3.63;;;;;;;2.12;84.86;93969.03;5053548;28;20507;-67
2021/12/20 07:33:40;;;;;;;6.25;3.75;;;;;;;2.33;83.03;93974.72;5051931;28;20037;-67
2021/12/20 07:36:06;;;;;;;4.57;3.50;;;;;;;2.28;82.77;93969.97;5052649;28;20028;-68
2021/12/20 07:38:32;;;;;;;4.88;3.38;;;;;;;2.25;82.37;93970.84;5052821;28;20025;-67
2021/12/20 07:40:58;;;;;;;7.25;3.28;;;;;;;2.14;82.98;93977.38;5052425;28;20036;-66
2021/12/20 07:43:24;;;;;;;3.83;2.70;;;;;;;2.23;82.19;93983.94;5052351;28;20390;-67
2021/12/20 07:45:49;;;;;;;5.22;3.08;;;;;;;2.29;81.23;93987.50;5052795;28;20097;-67
2021/12/20 07:48:18;;;;;;;4.95;3.45;;;;;;;2.23;81.92;93984.66;5053151;28;20428;-68
2021/12/20 07:50:45;;;;;;;6.70;3.22;;;;;;;2.22;81.86;93988.53;5052517;28;20025;-66
2021/12/20 07:53:10;;;;;;;4.90;3.50;;;;;;;2.19;82.95;93979.44;5052622;28;20032;-67
2021/12/20 07:55:36;;;;;;;6.35;3.72;;;;;;;2.14;82.90;93972.03;5052187;28;20036;-66
2021/12/20 07:58:02;;;;;;;5.45;3.47;;;;;;;2.22;81.02;93979.75;5052310;28;20040;-66
2021/12/20 08:00:27;;;;;;;5.15;3.05;;;;;;;2.35;80.54;93980.38;5052854;28;20098;-67
2021/12/20 08:02:54;;;;;;;3.67;2.58;;;;;;;2.36;79.48;93974.56;5052283;28;20050;-66
2021/12/20 08:05:20;;;;;;;4.18;2.65;;;;;;;2.38;79.44;93995.53;5052180;28;20028;-67
2021/12/20 08:07:50;;;;;;;6.18;3.08;;;;;;;2.53;78.60;94001.81;5052483;28;20094;-67
2021/12/20 08:10:18;;;;;;;6.85;3.05;;;;;;;2.56;78.35;93999.44;5052168;28;20028;-67
2021/12/20 08:12:44;;;;;;;7.78;3.40;;;;;;;2.49;78.21;93995.84;5052364;28;20021;-68
2021/12/20 08:15:10;;;;;;;4.28;2.83;;;;;;;2.47;77.48;94002.88;5052119;28;20087;-70
2021/12/20 08:17:35;;;;;;;6.63;2.70;;;;;;;2.61;76.88;94001.53;5052591;28;20063;-69
2021/12/20 08:20:01;;;;;;;3.00;2.38;;;;;;;2.74;76.50;94009.41;5051053;28;20440;-68
2021/12/20 08:22:29;;;;;;;3.53;2.55;;;;;;;2.72;76.24;94017.88;5051366;28;20028;-69
2021/12/20 08:24:54;;;;;;;4.32;2.88;;;;;;;2.98;76.13;94020.25;5051762;28;20033;-68
2021/12/20 08:27:20;;;;;;;3.42;2.20;;;;;;;3.06;74.54;94021.44;5054049;28;20055;-69
2021/12/20 08:29:46;;;;;;;2.97;2.03;;;;;;;3.22;73.69;94018.44;5052964;28;20036;-69
2021/12/20 08:32:11;;;;;;;7.63;2.53;;;;;;;3.52;73.22;94015.25;5052075;28;20025;-70
2021/12/20 08:34:37;;;;;;;4.45;2.47;;;;;;;3.84;69.55;94023.78;5052162;28;20108;-69
2021/12/20 08:37:03;;;;;;;2.58;1.73;;;;;;;4.36;67.57;94035.16;5052365;28;20108;-69
2021/12/20 08:39:30;;;;;;;3.38;2.38;;;;;;;4.13;68.65;94033.94;5052367;28;20454;-69
2021/12/20 08:41:56;;;;;;;4.95;2.83;;;;;;;4.01;68.99;94024.16;5051939;28;20110;-68
2021/12/20 08:44:23;;;;;;;6.28;2.70;;;;;;;4.25;68.41;94029.53;5054265;28;20481;-68
2021/12/20 08:46:49;;;;;;;13.50;4.03;;;;;;;4.27;68.46;94031.75;5055662;28;20033;-69
2021/12/20 08:49:14;;;;;;;4.22;2.55;;;;;;;3.92;69.69;94040.31;5055602;28;20029;-68
2021/12/20 08:51:40;;;;;;;4.60;2.80;;;;;;;3.70;69.79;94043.97;5054570;28;20107;-68
2021/12/20 08:54:06;;;;;;;6.57;2.97;;;;;;;3.63;70.35;94031.59;5055396;28;20043;-70
2021/12/20 08:56:31;;;;;;;5.65;2.33;;;;;;;3.80;69.84;94023.91;5055538;28;20025;-69
2021/12/20 08:58:57;;;;;;;9.25;2.53;;;;;;;3.86;69.00;94024.81;5054373;28;20032;-69
2021/12/20 09:01:22;;;;;;;5.25;3.10;;;;;;;4.18;68.65;94035.25;5055374;28;20032;-69
2021/12/20 09:03:48;;;;;;;6.15;2.58;;;;;;;4.39;67.09;94039.59;5055538;28;20350;-69
2021/12/20 09:06:14;;;;;;;9.70;2.50;;;;;;;4.90;65.22;94019.06;5055415;28;20035;-69
2021/12/20 09:08:42;;;;;;;6.18;2.30;;;;;;;4.46;66.37;94025.09;5055798;28;20108;-70
2021/12/20 09:11:07;;;;;;;6.93;2.40;;;;;;;4.57;66.79;94025.31;5055078;28;20478;-70
2021/12/20 09:13:33;;;;;;;5.95;2.35;;;;;;;4.65;66.08;94030.31;5055055;28;20036;-69
2021/12/20 09:15:59;;;;;;;3.10;2.35;;;;;;;4.37;66.40;94025.13;5055114;28;20020;-70
2021/12/20 09:18:29;;;;;;;4.60;3.17;;;;;;;4.27;67.82;94021.00;5054212;28;20052;-69
2021/12/20 09:20:58;;;;;;;6.05;2.85;;;;;;;4.22;66.70;94022.38;5055098;28;20477;-69
2021/12/20 09:23:27;;;;;;;5.28;2.85;;;;;;;4.29;66.29;94035.47;5055030;28;20039;-68
2021/12/20 09:25:52;;;;;;;8.82;2.83;;;;;;;4.36;66.46;94026.34;5055043;28;20020;-68
2021/12/20 09:28:19;;;;;;;5.57;3.35;;;;;;;4.10;68.08;94024.09;5054960;28;20039;-68
2021/12/20 09:30:45;;;;;;;4.05;2.47;;;;;;;3.89;68.45;94026.56;5054785;28;20033;-68
2021/12/20 09:33:12;;;;;;;4.07;2.60;;;;;;;3.82;69.37;94026.91;5054967;28;20065;-68
2021/12/20 09:35:38;;;;;;;6.20;2.78;;;;;;;3.78;69.18;94020.97;5055040;28;20041;-68
2021/12/20 09:38:10;;;;;;;6.30;3.33;;;;;;;3.89;69.20;94020.47;5054733;28;20025;-68
2021/12/20 09:40:40;;;;;;;5.00;3.15;;;;;;;4.01;69.53;94032.22;5055172;28;20366;-69
2021/12/20 09:43:12;;;;;;;5.78;3.33;;;;;;;4.03;68.91;94035.16;5054585;28;20407;-69
2021/12/20 09:45:41;;;;;;;12.07;3.47;;;;;;;4.38;67.09;94026.63;5054500;28;20040;-69
2021/12/20 09:48:07;;;;;;;3.83;2.47;;;;;;;4.01;69.08;94026.84;5054592;28;20057;-69
2021/12/20 09:50:32;;;;;;;2.78;2.10;;;;;;;3.89;68.54;94023.88;5054829;28;20029;-68
2021/12/20 09:53:03;;;;;;;4.88;2.40;;;;;;;3.84;69.13;94023.78;5054978;28;20085;-68
2021/12/20 09:55:30;;;;;;;3.03;2.17;;;;;;;3.93;68.08;94022.97;5054223;28;20108;-68
2021/12/20 09:57:58;;;;;;;3.53;2.45;;;;;;;3.71;68.59;94021.28;5054423;28;20097;-69
2021/12/20 10:00:23;;;;;;;3.90;2.50;;;;;;;3.64;68.47;94016.22;5054415;28;20071;-69
2021/12/20 10:02:49;;;;;;;4.07;2.70;;;;;;;3.43;70.21;94024.06;5054424;28;20052;-68
2021/12/20 10:05:17;;;;;;;6.32;2.67;;;;;;;3.37;69.43;94015.88;5054307;28;20025;-68
2021/12/20 10:07:50;;;;;;;3.65;2.00;;;;;;;3.25;69.42;94008.03;5053855;28;20110;-69
2021/12/20 10:10:38;;;;;;;2.45;2.00;;;;;;;3.20;70.06;94004.75;5053878;28;20032;-68
2021/12/20 10:13:04;;;;;;;3.40;2.00;;;;;;;3.04;70.03;93994.31;5054267;28;20029;-68
2021/12/20 10:15:39;;;;;;;2.10;1.90;;;;;;;3.02;71.34;93992.09;5052908;28;20083;-67
2021/12/20 10:18:11;;;;;;;3.25;2.00;;;;;;;2.98;71.70;94004.19;5053999;28;20028;-68
2021/12/20 10:20:37;;;;;;;2.72;2.03;;;;;;;2.99;71.65;93986.91;5053884;28;20494;-68
2021/12/20 10:23:14;;;;;;;2.70;2.00;;;;;;;2.86;71.83;94001.22;5053136;28;20037;-68
2021/12/20 10:25:42;;;;;;;4.63;2.47;;;;;;;2.97;73.23;93991.97;5054283;28;20498;-68
2021/12/20 10:28:16;;;;;;;2.30;1.80;;;;;;;2.79;73.30;93996.16;5053021;28;20343;-69
2021/12/20 10:30:59;;;;;;;2.47;2.00;;;;;;;2.74;74.31;93994.09;5054016;28;20021;-69
2021/12/20 10:33:25;;;;;;;5.90;2.33;;;;;;;2.75;75.20;94000.91;5053724;28;20079;-68
2021/12/20 10:35:54;;;;;;;2.90;2.20;;;;;;;2.78;75.24;94000.03;5053596;28;20052;-71
2021/12/20 10:38:38;;;;;;;5.43;2.78;;;;;;;2.84;76.04;94000.91;5053489;28;20025;-72
2021/12/20 10:41:19;;;;;;;3.83;2.80;;;;;;;2.83;76.18;94004.78;5053757;28;20028;-69
2021/12/20 10:43:55;;;;;;;5.03;2.50;;;;;;;2.86;75.89;94003.13;5054035;28;20564;-68
2021/12/20 10:46:34;;;;;;;3.22;2.60;;;;;;;2.86;75.70;94011.94;5053356;28;20035;-69
2021/12/20 10:49:10;;;;;;;5.32;2.13;;;;;;;2.78;75.67;94013.44;5053919;28;20082;-69
2021/12/20 10:51:40;;;;;;;3.15;1.80;;;;;;;2.65;77.35;94007.47;5053817;28;20021;-67
2021/12/20 10:54:10;;;;;;;2.17;1.70;;;;;;;2.75;77.41;94011.63;5053716;28;20028;-66
2021/12/20 10:56:48;;;;;;;3.30;1.92;;;;;;;2.66;78.29;94014.34;5053403;28;20085;-68
2021/12/20 10:59:14;;;;;;;2.85;1.83;;;;;;;2.62;78.35;94009.13;5053719;28;20108;-68
2021/12/20 11:04:18;;;;;;;1.80;1.55;;;;;;;2.60;79.38;94010.75;5053141;28;20112;-70
2021/12/20 11:09:23;;;;;;;1.50;1.40;;;;;;;2.30;80.58;94026.50;5053236;28;20029;-69
2021/12/20 11:11:58;;;;;;;1.95;1.50;;;;;;;2.43;80.34;94008.34;5052997;28;20045;-69
2021/12/20 11:14:33;;;;;;;1.63;1.52;;;;;;;2.43;80.17;94024.44;5053557;28;20116;-69
2021/12/20 11:17:01;;;;;;;1.42;1.33;;;;;;;2.30;81.08;94032.56;5053349;28;20075;-70
2021/12/20 11:19:38;;;;;;;2.90;1.77;;;;;;;2.35;82.31;94021.28;5052987;28;20024;-68
2021/12/20 11:22:11;;;;;;;3.03;1.70;;;;;;;2.29;82.87;94025.75;5053072;28;20381;-69
2021/12/20 11:24:50;;;;;;;2.20;1.48;;;;;;;2.31;83.47;94017.28;5053430;28;20104;-70
2021/12/20 11:27:21;;;;;;;6.28;2.08;;;;;;;2.36;84.32;94016.69;5053096;28;20108;-69
2021/12/20 11:29:49;;;;;;;3.72;2.20;;;;;;;2.38;83.84;94010.88;5053472;28;20028;-68
2021/12/20 11:32:16;;;;;;;2.75;1.80;;;;;;;2.23;83.97;93997.31;5051713;28;20024;-69
2021/12/20 11:34:42;;;;;;;3.53;2.05;;;;;;;2.46;83.54;94002.09;5052705;28;20021;-69
2021/12/20 11:37:14;;;;;;;2.20;1.90;;;;;;;2.27;83.50;94003.28;5053097;28;20493;-69
2021/12/20 11:39:39;;;;;;;1.95;1.65;;;;;;;2.16;85.04;93980.34;5052815;28;20024;-69
2021/12/20 11:42:07;;;;;;;2.80;1.88;;;;;;;2.06;85.54;93992.25;5052628;28;20167;-71
2021/12/20 11:44:34;;;;;;;6.40;2.35;;;;;;;2.30;85.58;94005.06;5052722;28;20013;-70
2021/12/20 11:47:55;;;;;;;3.78;2.40;;;;;;;2.16;86.99;94007.13;5051479;28;20029;-70
2021/12/20 11:50:29;;;;;;;4.20;2.22;;;;;;;2.17;85.73;94011.28;5039015;28;20032;-70
2021/12/20 11:53:07;;;;;;;5.40;2.20;;;;;;;2.14;85.16;94017.53;5052792;28;20028;-70
2021/12/20 11:55:33;;;;;;;3.20;2.45;;;;;;;2.19;84.61;94019.63;5053005;28;20129;-69
2021/12/20 11:58:03;;;;;;;3.13;2.50;;;;;;;2.27;83.81;94028.13;5052999;28;20150;-69
2021/12/20 12:00:35;;;;;;;6.85;2.38;;;;;;;2.20;83.10;94023.06;5052597;28;20039;-68